sensor_id;sensor_type;location;lat;lon;timestamp;temperature;humidity
10411;DHT22;5251;52.112;8.606;2022-07-24T00:01:28;17.30;99.90
10411;DHT22;5251;52.112;8.606;2022-07-24T00:03:53;17.20;99.90
10411;DHT22;5251;52.112;8.606;2022-07-24T00:06:19;17.30;99.90
10411;DHT22;5251;52.112;8.606;2022-07-24T00:08:44;17.20;99.90
10411;DHT22;5251;52.112;8.606;2022-07-24T00:11:10;17.20;99.90
10411;DHT22;5251;52.112;8.606;2022-07-24T00:13:36;17.20;99.90
10411;DHT22;5251;52.112;8.606;2022-07-24T00:16:02;17.10;99.90
10411;DHT22;5251;52.112;8.606;2022-07-24T00:18:27;17.10;99.90
10411;DHT22;5251;52.112;8.606;2022-07-24T00:20:53;17.10;99.90
10411;DHT22;5251;52.112;8.606;2022-07-24T00:23:18;17.10;99.90
10411;DHT22;5251;52.112;8.606;2022-07-24T00:25:44;17.00;99.90
10411;DHT22;5251;52.112;8.606;2022-07-24T00:28:10;17.00;99.90
10411;DHT22;5251;52.112;8.606;2022-07-24T00:30:35;17.00;99.90
10411;DHT22;5251;52.112;8.606;2022-07-24T00:33:03;17.00;99.90
10411;DHT22;5251;52.112;8.606;2022-07-24T00:35:29;16.90;99.90
10411;DHT22;5251;52.112;8.606;2022-07-24T00:37:54;16.90;99.90
10411;DHT22;5251;52.112;8.606;2022-07-24T00:40:20;16.90;99.90
10411;DHT22;5251;52.112;8.606;2022-07-24T00:42:45;16.90;99.90
10411;DHT22;5251;52.112;8.606;2022-07-24T00:45:11;16.90;99.90
10411;DHT22;5251;52.112;8.606;2022-07-24T00:47:37;16.90;99.90
10411;DHT22;5251;52.112;8.606;2022-07-24T00:50:03;16.90;99.90
10411;DHT22;5251;52.112;8.606;2022-07-24T00:52:30;16.80;99.90
10411;DHT22;5251;52.112;8.606;2022-07-24T00:54:56;16.80;99.90
10411;DHT22;5251;52.112;8.606;2022-07-24T00:57:21;16.80;99.90
10411;DHT22;5251;52.112;8.606;2022-07-24T00:59:47;16.80;99.90
10411;DHT22;5251;52.112;8.606;2022-07-24T01:02:13;16.80;99.90
10411;DHT22;5251;52.112;8.606;2022-07-24T01:04:39;16.70;99.90
10411;DHT22;5251;52.112;8.606;2022-07-24T01:07:05;16.70;99.90
10411;DHT22;5251;52.112;8.606;2022-07-24T01:09:31;16.70;99.90
10411;DHT22;5251;52.112;8.606;2022-07-24T01:11:58;16.70;99.90
10411;DHT22;5251;52.112;8.606;2022-07-24T01:14:25;16.70;99.90
10411;DHT22;5251;52.112;8.606;2022-07-24T01:16:51;16.70;99.90
10411;DHT22;5251;52.112;8.606;2022-07-24T01:19:17;16.70;99.90
10411;DHT22;5251;52.112;8.606;2022-07-24T01:21:51;16.70;99.90
10411;DHT22;5251;52.112;8.606;2022-07-24T01:24:18;16.70;99.90
10411;DHT22;5251;52.112;8.606;2022-07-24T01:26:45;16.60;99.90
10411;DHT22;5251;52.112;8.606;2022-07-24T01:29:11;16.70;99.90
10411;DHT22;5251;52.112;8.606;2022-07-24T01:31:37;16.70;99.90
10411;DHT22;5251;52.112;8.606;2022-07-24T01:34:03;16.60;99.90
10411;DHT22;5251;52.112;8.606;2022-07-24T01:36:29;16.60;99.90
10411;DHT22;5251;52.112;8.606;2022-07-24T01:38:54;16.60;99.90
10411;DHT22;5251;52.112;8.606;2022-07-24T01:41:20;16.60;99.90
10411;DHT22;5251;52.112;8.606;2022-07-24T01:43:46;16.60;99.90
10411;DHT22;5251;52.112;8.606;2022-07-24T01:46:11;16.60;99.90
10411;DHT22;5251;52.112;8.606;2022-07-24T01:48:38;16.60;99.90
10411;DHT22;5251;52.112;8.606;2022-07-24T01:51:04;16.60;99.90
10411;DHT22;5251;52.112;8.606;2022-07-24T01:53:29;16.60;99.90
10411;DHT22;5251;52.112;8.606;2022-07-24T01:55:55;16.50;99.90
10411;DHT22;5251;52.112;8.606;2022-07-24T01:58:21;16.60;99.90
10411;DHT22;5251;52.112;8.606;2022-07-24T02:00:47;16.50;99.90
10411;DHT22;5251;52.112;8.606;2022-07-24T02:03:13;16.50;99.90
10411;DHT22;5251;52.112;8.606;2022-07-24T02:05:39;16.50;99.90
10411;DHT22;5251;52.112;8.606;2022-07-24T02:08:05;16.50;99.90
10411;DHT22;5251;52.112;8.606;2022-07-24T02:10:30;16.50;99.90
10411;DHT22;5251;52.112;8.606;2022-07-24T02:12:56;16.50;99.90
10411;DHT22;5251;52.112;8.606;2022-07-24T02:15:22;16.50;99.90
10411;DHT22;5251;52.112;8.606;2022-07-24T02:17:50;16.50;99.90
10411;DHT22;5251;52.112;8.606;2022-07-24T02:20:16;16.40;99.90
10411;DHT22;5251;52.112;8.606;2022-07-24T02:22:42;16.50;99.90
10411;DHT22;5251;52.112;8.606;2022-07-24T02:25:08;16.50;99.90
10411;DHT22;5251;52.112;8.606;2022-07-24T02:27:35;16.40;99.90
10411;DHT22;5251;52.112;8.606;2022-07-24T02:30:01;16.40;99.90
10411;DHT22;5251;52.112;8.606;2022-07-24T02:32:27;16.40;99.90
10411;DHT22;5251;52.112;8.606;2022-07-24T02:34:52;16.40;99.90
10411;DHT22;5251;52.112;8.606;2022-07-24T02:37:18;16.40;99.90
10411;DHT22;5251;52.112;8.606;2022-07-24T02:39:44;16.40;99.90
10411;DHT22;5251;52.112;8.606;2022-07-24T02:42:09;16.30;99.90
10411;DHT22;5251;52.112;8.606;2022-07-24T02:44:35;16.30;99.90
10411;DHT22;5251;52.112;8.606;2022-07-24T02:47:00;16.30;99.90
10411;DHT22;5251;52.112;8.606;2022-07-24T02:49:26;16.30;99.90
10411;DHT22;5251;52.112;8.606;2022-07-24T02:51:51;16.30;99.90
10411;DHT22;5251;52.112;8.606;2022-07-24T02:54:17;16.30;99.90
10411;DHT22;5251;52.112;8.606;2022-07-24T02:56:42;16.30;99.90
10411;DHT22;5251;52.112;8.606;2022-07-24T02:59:08;16.30;99.90
10411;DHT22;5251;52.112;8.606;2022-07-24T03:01:34;16.20;99.90
10411;DHT22;5251;52.112;8.606;2022-07-24T03:04:00;16.20;99.90
10411;DHT22;5251;52.112;8.606;2022-07-24T03:06:25;16.20;99.90
10411;DHT22;5251;52.112;8.606;2022-07-24T03:08:51;16.20;99.90
10411;DHT22;5251;52.112;8.606;2022-07-24T03:11:17;16.20;99.90
10411;DHT22;5251;52.112;8.606;2022-07-24T03:13:42;16.20;99.90
10411;DHT22;5251;52.112;8.606;2022-07-24T03:16:08;16.20;99.90
10411;DHT22;5251;52.112;8.606;2022-07-24T03:18:34;16.10;99.90
10411;DHT22;5251;52.112;8.606;2022-07-24T03:20:59;16.10;99.90
10411;DHT22;5251;52.112;8.606;2022-07-24T03:23:25;16.10;99.90
10411;DHT22;5251;52.112;8.606;2022-07-24T03:25:50;16.10;99.90
10411;DHT22;5251;52.112;8.606;2022-07-24T03:28:18;16.10;99.90
10411;DHT22;5251;52.112;8.606;2022-07-24T03:30:43;16.10;99.90
10411;DHT22;5251;52.112;8.606;2022-07-24T03:33:09;16.20;99.90
10411;DHT22;5251;52.112;8.606;2022-07-24T03:35:34;16.20;99.90
10411;DHT22;5251;52.112;8.606;2022-07-24T03:38:00;16.20;99.90
10411;DHT22;5251;52.112;8.606;2022-07-24T03:40:26;16.20;99.90
10411;DHT22;5251;52.112;8.606;2022-07-24T03:42:51;16.20;99.90
10411;DHT22;5251;52.112;8.606;2022-07-24T03:45:17;16.20;99.90
10411;DHT22;5251;52.112;8.606;2022-07-24T03:47:43;16.20;99.90
10411;DHT22;5251;52.112;8.606;2022-07-24T03:50:08;16.20;99.90
10411;DHT22;5251;52.112;8.606;2022-07-24T03:52:34;16.20;99.90
10411;DHT22;5251;52.112;8.606;2022-07-24T03:55:00;16.20;99.90
10411;DHT22;5251;52.112;8.606;2022-07-24T03:57:25;16.20;99.90
10411;DHT22;5251;52.112;8.606;2022-07-24T03:59:51;16.20;99.90
10411;DHT22;5251;52.112;8.606;2022-07-24T04:02:17;16.30;99.90
10411;DHT22;5251;52.112;8.606;2022-07-24T04:04:43;16.30;99.90
10411;DHT22;5251;52.112;8.606;2022-07-24T04:07:08;16.30;99.90
10411;DHT22;5251;52.112;8.606;2022-07-24T04:09:34;16.30;99.90
10411;DHT22;5251;52.112;8.606;2022-07-24T04:12:00;16.30;99.90
10411;DHT22;5251;52.112;8.606;2022-07-24T04:14:26;16.40;99.90
10411;DHT22;5251;52.112;8.606;2022-07-24T04:16:51;16.40;99.90
10411;DHT22;5251;52.112;8.606;2022-07-24T04:19:17;16.50;99.90
10411;DHT22;5251;52.112;8.606;2022-07-24T04:21:42;16.50;99.90
10411;DHT22;5251;52.112;8.606;2022-07-24T04:24:08;16.50;99.90
10411;DHT22;5251;52.112;8.606;2022-07-24T04:26:34;16.60;99.90
10411;DHT22;5251;52.112;8.606;2022-07-24T04:28:59;16.60;99.90
10411;DHT22;5251;52.112;8.606;2022-07-24T04:31:25;16.70;99.90
10411;DHT22;5251;52.112;8.606;2022-07-24T04:33:50;16.70;99.90
10411;DHT22;5251;52.112;8.606;2022-07-24T04:36:16;16.70;99.90
10411;DHT22;5251;52.112;8.606;2022-07-24T04:38:42;16.80;99.90
10411;DHT22;5251;52.112;8.606;2022-07-24T04:41:07;16.90;99.90
10411;DHT22;5251;52.112;8.606;2022-07-24T04:43:33;16.90;99.90
10411;DHT22;5251;52.112;8.606;2022-07-24T04:45:59;16.90;99.90
10411;DHT22;5251;52.112;8.606;2022-07-24T04:48:24;17.00;99.90
10411;DHT22;5251;52.112;8.606;2022-07-24T04:50:53;17.10;99.90
10411;DHT22;5251;52.112;8.606;2022-07-24T04:53:18;17.10;99.90
10411;DHT22;5251;52.112;8.606;2022-07-24T04:55:44;17.10;99.90
10411;DHT22;5251;52.112;8.606;2022-07-24T04:58:09;17.20;99.90
10411;DHT22;5251;52.112;8.606;2022-07-24T05:00:35;17.30;99.90
10411;DHT22;5251;52.112;8.606;2022-07-24T05:03:01;17.30;99.90
10411;DHT22;5251;52.112;8.606;2022-07-24T05:05:26;17.40;99.90
10411;DHT22;5251;52.112;8.606;2022-07-24T05:07:52;17.50;99.90
10411;DHT22;5251;52.112;8.606;2022-07-24T05:10:17;17.60;99.90
10411;DHT22;5251;52.112;8.606;2022-07-24T05:12:43;17.60;99.90
10411;DHT22;5251;52.112;8.606;2022-07-24T05:15:09;17.80;99.90
10411;DHT22;5251;52.112;8.606;2022-07-24T05:17:35;17.90;99.90
10411;DHT22;5251;52.112;8.606;2022-07-24T05:20:03;18.20;99.90
10411;DHT22;5251;52.112;8.606;2022-07-24T05:22:28;18.40;99.90
10411;DHT22;5251;52.112;8.606;2022-07-24T05:24:54;18.60;99.90
10411;DHT22;5251;52.112;8.606;2022-07-24T05:27:20;18.90;99.90
10411;DHT22;5251;52.112;8.606;2022-07-24T05:29:45;19.10;99.90
10411;DHT22;5251;52.112;8.606;2022-07-24T05:32:12;19.40;99.90
10411;DHT22;5251;52.112;8.606;2022-07-24T05:34:38;19.60;99.90
10411;DHT22;5251;52.112;8.606;2022-07-24T05:37:03;19.90;99.90
10411;DHT22;5251;52.112;8.606;2022-07-24T05:39:29;20.10;99.90
10411;DHT22;5251;52.112;8.606;2022-07-24T05:41:55;20.30;99.90
10411;DHT22;5251;52.112;8.606;2022-07-24T05:44:21;20.50;99.90
10411;DHT22;5251;52.112;8.606;2022-07-24T05:46:46;20.60;99.90
10411;DHT22;5251;52.112;8.606;2022-07-24T05:49:12;20.70;99.90
10411;DHT22;5251;52.112;8.606;2022-07-24T05:51:38;20.80;99.90
10411;DHT22;5251;52.112;8.606;2022-07-24T05:54:04;20.90;99.90
10411;DHT22;5251;52.112;8.606;2022-07-24T05:56:30;21.00;99.90
10411;DHT22;5251;52.112;8.606;2022-07-24T05:58:56;21.10;99.90
10411;DHT22;5251;52.112;8.606;2022-07-24T06:01:22;21.10;99.90
10411;DHT22;5251;52.112;8.606;2022-07-24T06:03:48;21.10;99.90
10411;DHT22;5251;52.112;8.606;2022-07-24T06:06:13;21.20;99.90
10411;DHT22;5251;52.112;8.606;2022-07-24T06:08:39;21.20;99.90
10411;DHT22;5251;52.112;8.606;2022-07-24T06:11:05;21.30;99.90
10411;DHT22;5251;52.112;8.606;2022-07-24T06:13:31;21.30;99.90
10411;DHT22;5251;52.112;8.606;2022-07-24T06:15:56;21.40;99.90
10411;DHT22;5251;52.112;8.606;2022-07-24T06:18:25;21.50;99.90
10411;DHT22;5251;52.112;8.606;2022-07-24T06:20:50;21.60;99.90
10411;DHT22;5251;52.112;8.606;2022-07-24T06:23:16;21.60;99.90
10411;DHT22;5251;52.112;8.606;2022-07-24T06:25:41;21.70;99.90
10411;DHT22;5251;52.112;8.606;2022-07-24T06:28:07;21.80;99.90
10411;DHT22;5251;52.112;8.606;2022-07-24T06:30:33;21.90;99.90
10411;DHT22;5251;52.112;8.606;2022-07-24T06:32:59;21.90;99.90
10411;DHT22;5251;52.112;8.606;2022-07-24T06:35:26;22.00;99.90
10411;DHT22;5251;52.112;8.606;2022-07-24T06:37:52;22.00;99.90
10411;DHT22;5251;52.112;8.606;2022-07-24T06:40:19;22.20;99.90
10411;DHT22;5251;52.112;8.606;2022-07-24T06:42:46;22.30;99.90
10411;DHT22;5251;52.112;8.606;2022-07-24T06:45:12;22.30;99.90
10411;DHT22;5251;52.112;8.606;2022-07-24T06:47:38;22.40;99.90
10411;DHT22;5251;52.112;8.606;2022-07-24T06:50:04;22.50;99.90
10411;DHT22;5251;52.112;8.606;2022-07-24T06:52:30;22.60;99.80
10411;DHT22;5251;52.112;8.606;2022-07-24T06:54:56;22.70;99.20
10411;DHT22;5251;52.112;8.606;2022-07-24T06:57:23;22.80;99.30
10411;DHT22;5251;52.112;8.606;2022-07-24T06:59:51;22.90;99.00
10411;DHT22;5251;52.112;8.606;2022-07-24T07:02:18;23.00;99.00
10411;DHT22;5251;52.112;8.606;2022-07-24T07:04:43;23.10;98.40
10411;DHT22;5251;52.112;8.606;2022-07-24T07:07:09;23.20;98.70
10411;DHT22;5251;52.112;8.606;2022-07-24T07:09:34;23.30;98.50
10411;DHT22;5251;52.112;8.606;2022-07-24T07:12:01;23.40;98.30
10411;DHT22;5251;52.112;8.606;2022-07-24T07:14:27;23.50;98.20
10411;DHT22;5251;52.112;8.606;2022-07-24T07:16:52;23.60;98.10
10411;DHT22;5251;52.112;8.606;2022-07-24T07:19:18;23.70;98.00
10411;DHT22;5251;52.112;8.606;2022-07-24T07:21:44;23.80;97.20
10411;DHT22;5251;52.112;8.606;2022-07-24T07:24:09;24.00;96.90
10411;DHT22;5251;52.112;8.606;2022-07-24T07:26:35;24.00;97.30
10411;DHT22;5251;52.112;8.606;2022-07-24T07:29:01;24.20;97.00
10411;DHT22;5251;52.112;8.606;2022-07-24T07:31:26;24.20;97.30
10411;DHT22;5251;52.112;8.606;2022-07-24T07:33:53;24.40;97.10
10411;DHT22;5251;52.112;8.606;2022-07-24T07:36:19;24.40;96.00
10411;DHT22;5251;52.112;8.606;2022-07-24T07:38:45;24.60;95.80
10411;DHT22;5251;52.112;8.606;2022-07-24T07:41:10;24.70;96.00
10411;DHT22;5251;52.112;8.606;2022-07-24T07:43:37;24.80;95.20
10411;DHT22;5251;52.112;8.606;2022-07-24T07:46:03;24.90;95.50
10411;DHT22;5251;52.112;8.606;2022-07-24T07:48:29;25.00;95.30
10411;DHT22;5251;52.112;8.606;2022-07-24T07:50:56;25.10;95.10
10411;DHT22;5251;52.112;8.606;2022-07-24T07:53:22;25.20;95.20
10411;DHT22;5251;52.112;8.606;2022-07-24T07:55:47;25.30;94.50
10411;DHT22;5251;52.112;8.606;2022-07-24T07:58:17;25.40;93.80
10411;DHT22;5251;52.112;8.606;2022-07-24T08:00:43;25.50;93.50
10411;DHT22;5251;52.112;8.606;2022-07-24T08:03:08;25.60;94.00
10411;DHT22;5251;52.112;8.606;2022-07-24T08:05:34;25.80;93.30
10411;DHT22;5251;52.112;8.606;2022-07-24T08:08:00;25.90;93.00
10411;DHT22;5251;52.112;8.606;2022-07-24T08:10:26;26.00;93.50
10411;DHT22;5251;52.112;8.606;2022-07-24T08:12:52;26.10;93.40
10411;DHT22;5251;52.112;8.606;2022-07-24T08:15:18;26.20;91.50
10411;DHT22;5251;52.112;8.606;2022-07-24T08:17:44;26.30;91.00
10411;DHT22;5251;52.112;8.606;2022-07-24T08:20:10;26.40;90.70
10411;DHT22;5251;52.112;8.606;2022-07-24T08:22:36;26.50;89.70
10411;DHT22;5251;52.112;8.606;2022-07-24T08:25:01;26.60;90.40
10411;DHT22;5251;52.112;8.606;2022-07-24T08:27:27;26.70;89.30
10411;DHT22;5251;52.112;8.606;2022-07-24T08:29:53;26.70;86.50
10411;DHT22;5251;52.112;8.606;2022-07-24T08:32:20;26.80;85.90
10411;DHT22;5251;52.112;8.606;2022-07-24T08:34:45;26.90;85.20
10411;DHT22;5251;52.112;8.606;2022-07-24T08:37:11;27.00;85.60
10411;DHT22;5251;52.112;8.606;2022-07-24T08:39:37;27.10;83.80
10411;DHT22;5251;52.112;8.606;2022-07-24T08:42:03;27.20;82.20
10411;DHT22;5251;52.112;8.606;2022-07-24T08:44:28;27.30;83.30
10411;DHT22;5251;52.112;8.606;2022-07-24T08:46:54;27.40;82.30
10411;DHT22;5251;52.112;8.606;2022-07-24T08:49:21;27.40;82.70
10411;DHT22;5251;52.112;8.606;2022-07-24T08:51:49;27.60;80.50
10411;DHT22;5251;52.112;8.606;2022-07-24T08:54:15;27.60;77.10
10411;DHT22;5251;52.112;8.606;2022-07-24T08:56:41;27.70;76.80
10411;DHT22;5251;52.112;8.606;2022-07-24T08:59:20;27.80;76.70
10411;DHT22;5251;52.112;8.606;2022-07-24T09:01:50;27.80;77.00
10411;DHT22;5251;52.112;8.606;2022-07-24T09:04:57;27.90;74.10
10411;DHT22;5251;52.112;8.606;2022-07-24T09:07:23;28.00;76.10
10411;DHT22;5251;52.112;8.606;2022-07-24T09:12:32;28.20;76.30
10411;DHT22;5251;52.112;8.606;2022-07-24T09:14:58;28.30;74.90
10411;DHT22;5251;52.112;8.606;2022-07-24T09:17:24;28.30;73.30
10411;DHT22;5251;52.112;8.606;2022-07-24T09:22:24;28.50;72.10
10411;DHT22;5251;52.112;8.606;2022-07-24T09:25:09;28.50;72.20
10411;DHT22;5251;52.112;8.606;2022-07-24T09:27:56;28.60;72.10
10411;DHT22;5251;52.112;8.606;2022-07-24T09:30:30;28.70;72.20
10411;DHT22;5251;52.112;8.606;2022-07-24T09:35:47;28.80;70.80
10411;DHT22;5251;52.112;8.606;2022-07-24T09:38:19;28.80;70.50
10411;DHT22;5251;52.112;8.606;2022-07-24T09:40:50;28.80;69.50
10411;DHT22;5251;52.112;8.606;2022-07-24T09:43:17;28.90;70.30
10411;DHT22;5251;52.112;8.606;2022-07-24T09:46:06;29.00;69.50
10411;DHT22;5251;52.112;8.606;2022-07-24T09:48:55;29.00;69.90
10411;DHT22;5251;52.112;8.606;2022-07-24T09:51:20;29.10;71.10
10411;DHT22;5251;52.112;8.606;2022-07-24T09:53:51;29.10;71.10
10411;DHT22;5251;52.112;8.606;2022-07-24T09:56:17;29.20;70.50
10411;DHT22;5251;52.112;8.606;2022-07-24T10:01:15;29.30;70.00
10411;DHT22;5251;52.112;8.606;2022-07-24T10:03:43;29.30;69.40
10411;DHT22;5251;52.112;8.606;2022-07-24T10:06:11;29.40;69.00
10411;DHT22;5251;52.112;8.606;2022-07-24T10:08:39;29.40;69.10
10411;DHT22;5251;52.112;8.606;2022-07-24T10:11:06;29.40;68.10
10411;DHT22;5251;52.112;8.606;2022-07-24T10:13:32;29.50;69.60
10411;DHT22;5251;52.112;8.606;2022-07-24T10:18:52;29.60;68.50
10411;DHT22;5251;52.112;8.606;2022-07-24T10:21:24;29.70;66.80
10411;DHT22;5251;52.112;8.606;2022-07-24T10:26:34;29.70;68.40
10411;DHT22;5251;52.112;8.606;2022-07-24T10:29:18;29.80;69.00
10411;DHT22;5251;52.112;8.606;2022-07-24T10:31:54;29.80;68.50
10411;DHT22;5251;52.112;8.606;2022-07-24T10:37:02;29.90;67.70
10411;DHT22;5251;52.112;8.606;2022-07-24T10:39:47;30.00;69.20
10411;DHT22;5251;52.112;8.606;2022-07-24T10:42:15;30.00;68.60
10411;DHT22;5251;52.112;8.606;2022-07-24T10:44:41;30.10;66.50
10411;DHT22;5251;52.112;8.606;2022-07-24T10:47:11;30.10;69.90
10411;DHT22;5251;52.112;8.606;2022-07-24T10:49:48;30.10;69.40
10411;DHT22;5251;52.112;8.606;2022-07-24T11:00:35;30.50;66.90
10411;DHT22;5251;52.112;8.606;2022-07-24T11:03:04;30.60;69.10
10411;DHT22;5251;52.112;8.606;2022-07-24T11:05:37;30.70;65.90
10411;DHT22;5251;52.112;8.606;2022-07-24T11:10:53;30.80;66.10
10411;DHT22;5251;52.112;8.606;2022-07-24T11:21:35;31.00;65.20
10411;DHT22;5251;52.112;8.606;2022-07-24T11:24:19;31.00;64.70
10411;DHT22;5251;52.112;8.606;2022-07-24T11:29:23;31.00;64.80
10411;DHT22;5251;52.112;8.606;2022-07-24T11:31:53;31.10;65.80
10411;DHT22;5251;52.112;8.606;2022-07-24T11:34:19;31.10;65.10
10411;DHT22;5251;52.112;8.606;2022-07-24T11:36:48;31.10;64.30
10411;DHT22;5251;52.112;8.606;2022-07-24T11:39:15;31.10;64.70
10411;DHT22;5251;52.112;8.606;2022-07-24T11:41:47;31.10;64.30
10411;DHT22;5251;52.112;8.606;2022-07-24T11:44:20;31.10;62.70
10411;DHT22;5251;52.112;8.606;2022-07-24T11:46:46;31.10;62.60
10411;DHT22;5251;52.112;8.606;2022-07-24T11:49:12;31.10;63.00
10411;DHT22;5251;52.112;8.606;2022-07-24T11:51:45;31.10;63.10
10411;DHT22;5251;52.112;8.606;2022-07-24T11:54:12;31.10;63.40
10411;DHT22;5251;52.112;8.606;2022-07-24T11:56:39;31.10;63.30
10411;DHT22;5251;52.112;8.606;2022-07-24T11:59:05;31.10;64.30
10411;DHT22;5251;52.112;8.606;2022-07-24T12:01:31;31.10;62.30
10411;DHT22;5251;52.112;8.606;2022-07-24T12:03:58;31.10;61.40
10411;DHT22;5251;52.112;8.606;2022-07-24T12:06:26;31.10;60.40
10411;DHT22;5251;52.112;8.606;2022-07-24T12:09:06;31.10;61.00
10411;DHT22;5251;52.112;8.606;2022-07-24T12:11:33;31.10;61.30
10411;DHT22;5251;52.112;8.606;2022-07-24T12:14:01;31.20;59.80
10411;DHT22;5251;52.112;8.606;2022-07-24T12:16:27;31.20;60.00
10411;DHT22;5251;52.112;8.606;2022-07-24T12:19:22;31.20;60.40
10411;DHT22;5251;52.112;8.606;2022-07-24T12:21:50;31.30;59.40
10411;DHT22;5251;52.112;8.606;2022-07-24T12:24:16;31.30;59.60
10411;DHT22;5251;52.112;8.606;2022-07-24T12:26:56;31.30;59.70
10411;DHT22;5251;52.112;8.606;2022-07-24T12:29:23;31.40;60.00
10411;DHT22;5251;52.112;8.606;2022-07-24T12:31:50;31.40;59.80
10411;DHT22;5251;52.112;8.606;2022-07-24T12:34:18;31.40;58.30
10411;DHT22;5251;52.112;8.606;2022-07-24T12:36:43;31.40;59.40
10411;DHT22;5251;52.112;8.606;2022-07-24T12:39:11;31.40;58.60
10411;DHT22;5251;52.112;8.606;2022-07-24T12:41:45;31.40;58.50
10411;DHT22;5251;52.112;8.606;2022-07-24T12:44:14;31.50;61.10
10411;DHT22;5251;52.112;8.606;2022-07-24T12:46:44;31.50;58.70
10411;DHT22;5251;52.112;8.606;2022-07-24T12:49:17;31.60;58.30
10411;DHT22;5251;52.112;8.606;2022-07-24T12:51:51;31.60;59.10
10411;DHT22;5251;52.112;8.606;2022-07-24T12:56:53;31.80;58.70
10411;DHT22;5251;52.112;8.606;2022-07-24T13:01:54;31.90;58.30
10411;DHT22;5251;52.112;8.606;2022-07-24T13:04:21;31.90;56.90
10411;DHT22;5251;52.112;8.606;2022-07-24T13:06:51;32.00;58.40
10411;DHT22;5251;52.112;8.606;2022-07-24T13:09:17;32.00;58.30
10411;DHT22;5251;52.112;8.606;2022-07-24T13:11:45;32.00;58.60
10411;DHT22;5251;52.112;8.606;2022-07-24T13:14:12;32.10;57.20
10411;DHT22;5251;52.112;8.606;2022-07-24T13:16:40;32.10;57.20
10411;DHT22;5251;52.112;8.606;2022-07-24T13:19:07;32.10;58.00
10411;DHT22;5251;52.112;8.606;2022-07-24T13:21:33;32.20;57.70
10411;DHT22;5251;52.112;8.606;2022-07-24T13:23:59;32.20;56.30
10411;DHT22;5251;52.112;8.606;2022-07-24T13:26:25;32.20;56.60
10411;DHT22;5251;52.112;8.606;2022-07-24T13:28:51;32.30;56.70
10411;DHT22;5251;52.112;8.606;2022-07-24T13:31:17;32.20;55.80
10411;DHT22;5251;52.112;8.606;2022-07-24T13:33:45;32.30;57.70
10411;DHT22;5251;52.112;8.606;2022-07-24T13:36:12;32.30;55.40
10411;DHT22;5251;52.112;8.606;2022-07-24T13:38:37;32.30;56.70
10411;DHT22;5251;52.112;8.606;2022-07-24T13:41:03;32.30;56.50
10411;DHT22;5251;52.112;8.606;2022-07-24T13:43:29;32.30;54.50
10411;DHT22;5251;52.112;8.606;2022-07-24T13:45:54;32.30;57.20
10411;DHT22;5251;52.112;8.606;2022-07-24T13:48:20;32.30;55.20
10411;DHT22;5251;52.112;8.606;2022-07-24T13:50:46;32.30;55.90
10411;DHT22;5251;52.112;8.606;2022-07-24T13:53:11;32.30;55.80
10411;DHT22;5251;52.112;8.606;2022-07-24T13:55:37;32.30;54.80
10411;DHT22;5251;52.112;8.606;2022-07-24T13:58:02;32.30;55.20
10411;DHT22;5251;52.112;8.606;2022-07-24T14:00:28;32.30;55.70
10411;DHT22;5251;52.112;8.606;2022-07-24T14:02:54;32.30;54.70
10411;DHT22;5251;52.112;8.606;2022-07-24T14:05:26;32.30;55.50
10411;DHT22;5251;52.112;8.606;2022-07-24T14:07:52;32.30;54.90
10411;DHT22;5251;52.112;8.606;2022-07-24T14:10:19;32.30;53.90
10411;DHT22;5251;52.112;8.606;2022-07-24T14:12:45;32.30;54.70
10411;DHT22;5251;52.112;8.606;2022-07-24T14:15:10;32.30;55.70
10411;DHT22;5251;52.112;8.606;2022-07-24T14:17:40;32.30;56.30
10411;DHT22;5251;52.112;8.606;2022-07-24T14:20:06;32.30;53.80
10411;DHT22;5251;52.112;8.606;2022-07-24T14:22:34;32.30;55.80
10411;DHT22;5251;52.112;8.606;2022-07-24T14:25:00;32.30;54.70
10411;DHT22;5251;52.112;8.606;2022-07-24T14:27:25;32.30;54.40
10411;DHT22;5251;52.112;8.606;2022-07-24T14:29:51;32.30;54.70
10411;DHT22;5251;52.112;8.606;2022-07-24T14:32:16;32.30;55.80
10411;DHT22;5251;52.112;8.606;2022-07-24T14:34:42;32.40;54.80
10411;DHT22;5251;52.112;8.606;2022-07-24T14:37:08;32.40;55.60
10411;DHT22;5251;52.112;8.606;2022-07-24T14:39:33;32.30;54.80
10411;DHT22;5251;52.112;8.606;2022-07-24T14:41:59;32.40;54.80
10411;DHT22;5251;52.112;8.606;2022-07-24T14:44:25;32.40;54.80
10411;DHT22;5251;52.112;8.606;2022-07-24T14:46:50;32.30;54.10
10411;DHT22;5251;52.112;8.606;2022-07-24T14:49:16;32.40;55.00
10411;DHT22;5251;52.112;8.606;2022-07-24T14:51:41;32.40;54.90
10411;DHT22;5251;52.112;8.606;2022-07-24T14:54:08;32.40;54.80
10411;DHT22;5251;52.112;8.606;2022-07-24T14:56:35;32.40;54.60
10411;DHT22;5251;52.112;8.606;2022-07-24T14:59:01;32.40;55.20
10411;DHT22;5251;52.112;8.606;2022-07-24T15:01:27;32.40;54.80
10411;DHT22;5251;52.112;8.606;2022-07-24T15:03:53;32.40;55.30
10411;DHT22;5251;52.112;8.606;2022-07-24T15:06:20;32.40;53.80
10411;DHT22;5251;52.112;8.606;2022-07-24T15:08:46;32.40;52.50
10411;DHT22;5251;52.112;8.606;2022-07-24T15:11:12;32.40;54.30
10411;DHT22;5251;52.112;8.606;2022-07-24T15:13:38;32.40;55.10
10411;DHT22;5251;52.112;8.606;2022-07-24T15:16:06;32.40;54.40
10411;DHT22;5251;52.112;8.606;2022-07-24T15:18:32;32.40;53.50
10411;DHT22;5251;52.112;8.606;2022-07-24T15:20:58;32.40;53.20
10411;DHT22;5251;52.112;8.606;2022-07-24T15:23:24;32.30;53.60
10411;DHT22;5251;52.112;8.606;2022-07-24T15:25:50;32.40;54.30
10411;DHT22;5251;52.112;8.606;2022-07-24T15:28:15;32.40;53.90
10411;DHT22;5251;52.112;8.606;2022-07-24T15:30:41;32.30;54.00
10411;DHT22;5251;52.112;8.606;2022-07-24T15:33:07;32.30;53.40
10411;DHT22;5251;52.112;8.606;2022-07-24T15:35:32;32.30;52.50
10411;DHT22;5251;52.112;8.606;2022-07-24T15:37:58;32.30;54.70
10411;DHT22;5251;52.112;8.606;2022-07-24T15:40:24;32.40;54.10
10411;DHT22;5251;52.112;8.606;2022-07-24T15:42:53;32.30;53.50
10411;DHT22;5251;52.112;8.606;2022-07-24T15:45:19;32.20;53.20
10411;DHT22;5251;52.112;8.606;2022-07-24T15:47:45;32.20;53.20
10411;DHT22;5251;52.112;8.606;2022-07-24T15:50:11;32.20;53.20
10411;DHT22;5251;52.112;8.606;2022-07-24T15:52:36;32.30;53.60
10411;DHT22;5251;52.112;8.606;2022-07-24T15:55:02;32.20;54.30
10411;DHT22;5251;52.112;8.606;2022-07-24T15:57:28;32.20;53.10
10411;DHT22;5251;52.112;8.606;2022-07-24T15:59:53;32.20;55.10
10411;DHT22;5251;52.112;8.606;2022-07-24T16:02:20;32.20;54.70
10411;DHT22;5251;52.112;8.606;2022-07-24T16:04:48;32.10;55.20
10411;DHT22;5251;52.112;8.606;2022-07-24T16:07:13;32.10;53.90
10411;DHT22;5251;52.112;8.606;2022-07-24T16:09:41;32.20;54.50
10411;DHT22;5251;52.112;8.606;2022-07-24T16:12:07;32.10;53.80
10411;DHT22;5251;52.112;8.606;2022-07-24T16:14:33;32.00;54.00
10411;DHT22;5251;52.112;8.606;2022-07-24T16:16:59;32.00;54.50
10411;DHT22;5251;52.112;8.606;2022-07-24T16:19:24;32.00;53.80
10411;DHT22;5251;52.112;8.606;2022-07-24T16:21:50;32.00;55.10
10411;DHT22;5251;52.112;8.606;2022-07-24T16:24:16;32.00;53.60
10411;DHT22;5251;52.112;8.606;2022-07-24T16:26:41;31.90;53.70
10411;DHT22;5251;52.112;8.606;2022-07-24T16:29:07;31.80;54.30